Time;durP1;ratioP1;P1;durP2;ratioP2;P2;SDS_P1;SDS_P2;PMS_P1;PMS_P2;Temp;Humidity;BMP_temperature;BMP_pressure;BME280_temperature;BME280_humidity;BME280_pressure;Samples;Min_cycle;Max_cycle;Signal;HPM_P1;HPM_P2
2023/01/03 00:01:30;;;;;;;54.67;26.70;;;11.10;91.60;;;;;;5105677;27;20192;-80
2023/01/03 00:04:00;;;;;;;59.07;27.43;;;11.10;91.60;;;;;;5105015;27;20254;-80
2023/01/03 00:06:32;;;;;;;55.50;26.00;;;11.10;91.60;;;;;;5111008;27;20214;-81
2023/01/03 00:09:01;;;;;;;43.67;21.37;;;11.10;91.60;;;;;;5107244;28;20250;-81
2023/01/03 00:14:23;;;;;;;41.00;21.53;;;11.00;91.50;;;;;;5107645;28;20696;-80
2023/01/03 00:16:53;;;;;;;39.20;20.13;;;11.00;91.60;;;;;;5105025;27;20646;-78
2023/01/03 00:19:23;;;;;;;44.73;21.17;;;10.90;91.70;;;;;;5114878;28;20235;-81
2023/01/03 00:21:51;;;;;;;39.77;19.67;;;10.90;91.60;;;;;;5118326;27;20199;-79
2023/01/03 00:24:20;;;;;;;43.03;21.83;;;10.90;91.70;;;;;;5100144;28;20282;-82
2023/01/03 00:26:49;;;;;;;37.03;19.77;;;10.90;91.70;;;;;;5094737;28;20205;-82
2023/01/03 00:29:18;;;;;;;41.67;21.13;;;10.90;91.70;;;;;;5104648;28;20194;-81
2023/01/03 00:31:47;;;;;;;34.90;20.03;;;10.90;91.70;;;;;;5098560;28;20664;-80
2023/01/03 00:34:15;;;;;;;39.67;21.03;;;10.90;91.70;;;;;;5105065;28;20190;-81
2023/01/03 00:36:44;;;;;;;40.47;21.03;;;10.90;91.70;;;;;;5100818;28;20197;-81
2023/01/03 00:39:14;;;;;;;37.57;19.53;;;10.80;91.70;;;;;;5104802;27;20274;-80
2023/01/03 00:41:43;;;;;;;44.10;22.00;;;10.90;91.80;;;;;;5115362;27;20205;-79
2023/01/03 00:44:13;;;;;;;43.70;20.57;;;10.80;91.80;;;;;;5107866;28;20274;-79
2023/01/03 00:46:41;;;;;;;40.73;21.23;;;10.80;91.80;;;;;;5104340;27;20193;-81
2023/01/03 00:49:11;;;;;;;40.40;21.07;;;10.80;91.80;;;;;;5103013;27;20227;-81
2023/01/03 00:51:40;;;;;;;44.47;21.83;;;10.80;91.80;;;;;;5102798;27;20405;-81
2023/01/03 00:54:11;;;;;;;41.03;20.73;;;10.80;91.80;;;;;;5112228;27;20216;-80
2023/01/03 00:56:41;;;;;;;45.93;23.80;;;10.80;91.90;;;;;;5106140;27;20227;-81
2023/01/03 00:59:10;;;;;;;41.07;21.87;;;10.70;92.10;;;;;;5106574;27;20197;-81
2023/01/03 01:01:42;;;;;;;43.57;23.90;;;10.70;92.30;;;;;;5104587;27;20188;-80
2023/01/03 01:04:17;;;;;;;47.00;23.50;;;10.70;92.70;;;;;;5107173;28;20193;-82
2023/01/03 01:06:47;;;;;;;42.67;23.37;;;10.70;93.00;;;;;;5101279;27;20703;-80
2023/01/03 01:09:21;;;;;;;49.77;23.97;;;10.60;93.20;;;;;;5108717;27;20200;-80
2023/01/03 01:11:50;;;;;;;44.47;23.10;;;10.60;93.40;;;;;;5109503;28;20272;-80
2023/01/03 01:14:22;;;;;;;44.80;22.97;;;10.60;93.50;;;;;;5098747;28;20221;-80
2023/01/03 01:16:54;;;;;;;46.90;24.00;;;10.60;93.70;;;;;;5097870;28;20213;-81
2023/01/03 01:19:24;;;;;;;49.40;24.87;;;10.60;93.80;;;;;;5109846;28;20190;-78
2023/01/03 01:21:53;;;;;;;43.67;23.20;;;10.60;94.00;;;;;;5106488;28;20174;-79
2023/01/03 01:24:22;;;;;;;49.90;24.37;;;10.50;94.20;;;;;;5111232;28;20744;-80
2023/01/03 01:26:51;;;;;;;49.73;23.67;;;10.60;94.30;;;;;;5116872;27;20178;-80
2023/01/03 01:29:19;;;;;;;47.37;23.90;;;10.50;94.40;;;;;;5106312;28;20250;-80
2023/01/03 01:31:48;;;;;;;44.87;24.97;;;10.50;94.50;;;;;;5107786;27;20204;-79
2023/01/03 01:34:18;;;;;;;47.73;23.97;;;10.50;94.50;;;;;;5103394;28;20242;-78
2023/01/03 01:36:47;;;;;;;49.53;25.13;;;10.50;94.60;;;;;;5104835;28;20204;-81
2023/01/03 01:39:18;;;;;;;45.40;24.60;;;10.50;94.60;;;;;;5098209;27;20206;-81
2023/01/03 01:44:50;;;;;;;44.30;23.77;;;10.40;94.50;;;;;;5100602;27;20221;-80
2023/01/03 01:47:31;;;;;;;44.30;25.00;;;10.40;94.50;;;;;;5045078;28;20279;-81
2023/01/03 01:50:07;;;;;;;48.33;23.63;;;10.40;94.50;;;;;;5099073;28;20189;-80
2023/01/03 01:52:39;;;;;;;46.43;24.60;;;10.40;94.40;;;;;;5097180;27;20201;-80
2023/01/03 01:55:20;;;;;;;43.70;24.37;;;10.40;94.50;;;;;;5104650;28;20680;-80
2023/01/03 01:57:49;;;;;;;45.90;23.03;;;10.40;94.50;;;;;;5099589;28;20189;-80
2023/01/03 02:00:18;;;;;;;51.50;24.30;;;10.30;94.50;;;;;;5074145;28;20246;-80
2023/01/03 02:02:49;;;;;;;45.07;24.20;;;10.30;94.60;;;;;;5099725;27;20205;-80
2023/01/03 02:05:21;;;;;;;45.03;23.40;;;10.30;94.70;;;;;;5105382;27;20806;-80
2023/01/03 02:07:51;;;;;;;46.00;24.77;;;10.30;94.80;;;;;;5107255;28;20190;-78
2023/01/03 02:10:26;;;;;;;47.00;26.50;;;10.20;95.00;;;;;;5103406;28;20201;-79
2023/01/03 02:13:05;;;;;;;49.23;25.87;;;10.20;95.10;;;;;;5103806;28;20601;-78
2023/01/03 02:16:07;;;;;;;48.43;25.10;;;10.20;95.10;;;;;;5107403;28;20291;-81
2023/01/03 02:18:46;;;;;;;44.17;23.33;;;10.20;95.10;;;;;;5090737;28;20543;-80
2023/01/03 02:21:48;;;;;;;47.67;24.97;;;10.10;95.00;;;;;;5109458;28;20212;-81
2023/01/03 02:24:46;;;;;;;48.20;24.10;;;10.10;95.00;;;;;;5098948;28;20189;-81
2023/01/03 02:27:42;;;;;;;48.07;27.57;;;10.00;95.00;;;;;;5093998;28;20434;-79
2023/01/03 02:30:37;;;;;;;50.10;25.73;;;10.00;95.10;;;;;;5097209;28;20446;-80
2023/01/03 02:33:17;;;;;;;44.87;25.43;;;9.90;95.10;;;;;;5100915;28;20250;-79
2023/01/03 02:35:54;;;;;;;53.20;25.90;;;9.90;95.00;;;;;;5102496;28;20209;-80
2023/01/03 02:38:29;;;;;;;53.47;27.50;;;9.90;95.00;;;;;;5107405;28;20497;-81
2023/01/03 02:41:07;;;;;;;48.27;25.70;;;9.90;95.00;;;;;;5110084;28;20197;-81
2023/01/03 02:43:45;;;;;;;45.73;24.67;;;9.90;95.00;;;;;;5109697;27;20201;-80
2023/01/03 02:46:20;;;;;;;51.43;26.73;;;9.80;95.00;;;;;;5110195;28;20559;-79
2023/01/03 02:48:54;;;;;;;48.30;24.43;;;9.80;95.00;;;;;;5105512;28;20185;-81
2023/01/03 02:51:26;;;;;;;46.27;24.70;;;9.80;94.90;;;;;;5070073;28;20279;-80
2023/01/03 02:53:56;;;;;;;45.20;23.93;;;9.80;94.90;;;;;;5104078;28;20212;-81
2023/01/03 02:56:30;;;;;;;48.50;25.00;;;9.80;95.00;;;;;;5110780;27;20201;-80
2023/01/03 02:59:01;;;;;;;44.17;24.13;;;9.70;95.00;;;;;;5100435;27;20201;-79
2023/01/03 03:01:32;;;;;;;43.77;23.90;;;9.70;95.00;;;;;;5105652;28;20219;-80
2023/01/03 03:04:05;;;;;;;42.30;23.23;;;9.70;95.30;;;;;;5108774;28;20192;-80
2023/01/03 03:06:42;;;;;;;47.00;24.17;;;9.70;95.10;;;;;;5103946;28;20907;-80
2023/01/03 03:09:10;;;;;;;50.30;24.40;;;9.60;95.10;;;;;;5116186;27;20197;-78
2023/01/03 03:14:35;;;;;;;47.63;26.02;;;9.60;95.20;;;;;;5111976;27;20440;-79
2023/01/03 03:17:11;;;;;;;46.93;23.03;;;9.50;95.20;;;;;;5104600;28;20261;-80
2023/01/03 03:25:33;;;;;;;45.00;23.90;;;9.50;95.30;;;;;;5098583;28;20198;-80
2023/01/03 03:30:53;;;;;;;46.67;24.20;;;9.40;95.40;;;;;;5102922;27;20719;-79
2023/01/03 03:33:26;;;;;;;48.10;24.30;;;9.40;95.50;;;;;;5101346;28;20209;-79
2023/01/03 03:35:57;;;;;;;48.43;25.47;;;9.40;95.50;;;;;;5102443;27;20209;-80
2023/01/03 03:38:30;;;;;;;49.00;25.80;;;9.40;95.50;;;;;;5107269;28;20330;-81
2023/01/03 03:46:53;;;;;;;44.77;24.23;;;9.30;95.60;;;;;;5114691;27;20246;-79
2023/01/03 03:49:39;;;;;;;48.53;24.80;;;9.30;95.60;;;;;;5105041;27;20323;-79
2023/01/03 03:52:12;;;;;;;47.47;24.27;;;9.30;95.60;;;;;;5105168;27;20584;-79
2023/01/03 03:54:45;;;;;;;45.90;24.37;;;9.30;95.60;;;;;;5108216;27;20731;-79
2023/01/03 03:57:17;;;;;;;45.93;23.43;;;9.30;95.60;;;;;;5107906;28;20727;-82
2023/01/03 03:59:51;;;;;;;46.07;25.03;;;9.20;95.50;;;;;;5107669;28;20744;-80
2023/01/03 04:02:22;;;;;;;47.43;24.83;;;9.20;95.60;;;;;;5105823;27;20242;-79
2023/01/03 04:04:57;;;;;;;47.67;23.93;;;9.20;95.50;;;;;;5107274;27;20200;-79
2023/01/03 04:07:26;;;;;;;45.70;23.67;;;9.20;95.50;;;;;;5110867;27;20660;-81
2023/01/03 04:09:54;;;;;;;45.20;24.07;;;9.10;95.50;;;;;;5095877;28;20194;-79
2023/01/03 04:12:23;;;;;;;47.10;24.50;;;9.20;95.50;;;;;;5102256;27;20189;-79
2023/01/03 04:14:51;;;;;;;45.70;25.17;;;9.10;95.50;;;;;;5098992;28;20231;-79
2023/01/03 04:17:19;;;;;;;43.53;24.50;;;9.10;95.50;;;;;;5096744;27;20254;-80
2023/01/03 04:19:48;;;;;;;41.93;24.03;;;9.10;95.50;;;;;;5096551;28;20611;-80
2023/01/03 04:22:18;;;;;;;45.97;23.63;;;9.10;95.80;;;;;;5103613;27;20228;-79
2023/01/03 04:24:46;;;;;;;41.80;22.57;;;9.10;95.40;;;;;;5100324;28;20189;-80
2023/01/03 04:27:14;;;;;;;45.47;24.10;;;9.10;95.40;;;;;;5096669;28;20757;-81
2023/01/03 04:29:43;;;;;;;42.47;22.83;;;9.00;95.30;;;;;;5097087;27;20567;-80
2023/01/03 04:32:11;;;;;;;42.53;22.97;;;9.00;95.30;;;;;;5107754;28;20204;-81
2023/01/03 04:34:39;;;;;;;46.63;24.83;;;9.00;95.30;;;;;;5102983;28;20197;-81
2023/01/03 04:37:08;;;;;;;42.57;22.37;;;8.90;95.30;;;;;;5105592;27;20220;-81
2023/01/03 04:39:37;;;;;;;46.80;27.20;;;9.00;95.30;;;;;;5098137;28;20438;-81
2023/01/03 04:44:00;;;;;;;42.50;23.63;;;9.00;95.60;;;;;;5105982;27;20601;-81
2023/01/03 04:44:53;;;;;;;43.97;22.67;;;8.90;95.50;;;;;;5102148;28;20189;-79
2023/01/03 04:47:22;;;;;;;39.90;21.97;;;8.90;95.40;;;;;;5101482;28;20201;-80
2023/01/03 04:49:50;;;;;;;44.57;21.57;;;8.90;95.40;;;;;;5104436;28;20539;-81
2023/01/03 04:52:18;;;;;;;47.13;23.47;;;8.90;95.30;;;;;;5098887;28;20201;-81
2023/01/03 04:54:48;;;;;;;42.83;22.53;;;8.90;95.30;;;;;;5098860;27;20193;-79
2023/01/03 04:57:16;;;;;;;46.60;23.53;;;8.90;95.30;;;;;;5102207;28;20747;-80
2023/01/03 04:59:48;;;;;;;41.50;22.77;;;8.90;95.30;;;;;;5099761;28;20194;-80
2023/01/03 05:02:16;;;;;;;41.97;22.90;;;8.80;95.40;;;;;;5106405;27;20189;-80
2023/01/03 05:04:45;;;;;;;40.90;22.57;;;8.80;95.40;;;;;;5097314;28;20206;-81
2023/01/03 05:07:13;;;;;;;38.50;22.73;;;8.80;95.30;;;;;;5097452;28;20625;-81
2023/01/03 05:09:43;;;;;;;36.57;20.73;;;8.80;95.30;;;;;;5094577;28;20266;-80
2023/01/03 05:12:13;;;;;;;39.37;21.63;;;8.80;95.30;;;;;;5104229;27;20258;-80
2023/01/03 05:14:41;;;;;;;40.13;22.60;;;8.80;95.30;;;;;;5099649;28;20262;-80
2023/01/03 05:17:10;;;;;;;50.27;24.73;;;8.70;95.30;;;;;;5102230;28;20217;-80
2023/01/03 05:25:48;;;;;;;40.50;22.77;;;8.80;95.30;;;;;;5103155;27;20249;-80
2023/01/03 05:28:02;;;;;;;43.27;24.17;;;8.70;95.30;;;;;;5104813;28;20201;-80
2023/01/03 05:30:30;;;;;;;38.00;22.33;;;8.70;95.30;;;;;;5105259;27;20201;-80
2023/01/03 05:32:59;;;;;;;40.23;22.90;;;8.70;95.30;;;;;;5106205;27;20198;-79
2023/01/03 05:35:28;;;;;;;40.80;22.80;;;8.70;95.20;;;;;;5099165;28;20213;-80
2023/01/03 05:37:56;;;;;;;43.40;23.23;;;8.70;95.20;;;;;;5103141;27;20214;-80
2023/01/03 05:40:24;;;;;;;39.70;23.03;;;8.70;95.10;;;;;;5104711;27;20532;-79
2023/01/03 05:42:53;;;;;;;51.10;24.27;;;8.70;95.10;;;;;;5109535;27;20205;-80
2023/01/03 05:45:26;;;;;;;43.33;23.80;;;8.70;95.00;;;;;;5102041;27;20223;-79
2023/01/03 05:47:57;;;;;;;41.20;23.93;;;8.70;95.00;;;;;;5106136;27;20185;-80
2023/01/03 05:50:25;;;;;;;45.13;23.60;;;8.70;94.90;;;;;;5106148;28;20235;-80
2023/01/03 05:52:54;;;;;;;41.57;23.50;;;8.70;94.80;;;;;;5111243;27;20189;-81
2023/01/03 05:55:22;;;;;;;41.70;23.00;;;8.70;94.80;;;;;;5109450;27;20251;-81
2023/01/03 05:57:52;;;;;;;40.77;22.67;;;8.70;94.80;;;;;;5106340;28;20635;-81
2023/01/03 06:00:22;;;;;;;40.17;23.37;;;8.70;94.80;;;;;;5108707;28;20254;-80
2023/01/03 06:02:50;;;;;;;42.37;23.13;;;8.70;95.00;;;;;;5104709;27;20189;-81
2023/01/03 06:05:19;;;;;;;43.43;23.43;;;8.60;95.10;;;;;;5102369;28;20212;-80
2023/01/03 06:07:47;;;;;;;41.53;23.23;;;8.60;95.20;;;;;;5104509;27;20650;-81
2023/01/03 06:10:15;;;;;;;43.10;23.07;;;8.60;95.40;;;;;;5106754;27;20261;-81
2023/01/03 06:12:44;;;;;;;43.87;22.63;;;8.60;95.50;;;;;;5106377;27;20201;-81
2023/01/03 06:15:12;;;;;;;42.60;23.98;;;8.60;95.60;;;;;;5098794;28;20359;-81
2023/01/03 06:18:01;;;;;;;45.03;23.67;;;8.50;95.60;;;;;;5100042;28;20265;-81
2023/01/03 06:20:30;;;;;;;43.07;24.00;;;8.50;95.60;;;;;;5096041;28;20225;-81
2023/01/03 06:22:58;;;;;;;45.63;25.23;;;8.50;95.60;;;;;;5102139;28;20189;-81
2023/01/03 06:25:27;;;;;;;43.70;24.47;;;8.50;95.60;;;;;;5102512;28;20541;-82
2023/01/03 06:27:55;;;;;;;43.53;24.60;;;8.50;95.60;;;;;;5107549;28;20263;-79
2023/01/03 06:30:24;;;;;;;45.80;24.63;;;8.40;95.60;;;;;;5099101;28;20216;-80
2023/01/03 06:32:54;;;;;;;45.83;24.47;;;8.40;95.60;;;;;;5107220;28;20261;-80
2023/01/03 06:35:22;;;;;;;41.70;23.57;;;8.40;95.70;;;;;;5097374;28;20204;-81
2023/01/03 06:37:50;;;;;;;45.97;24.00;;;8.40;95.80;;;;;;5100938;28;20216;-81
2023/01/03 06:40:19;;;;;;;43.97;24.63;;;8.40;95.80;;;;;;5100780;28;20209;-81
2023/01/03 06:42:50;;;;;;;39.93;23.43;;;8.40;95.90;;;;;;5106243;28;20205;-81
2023/01/03 06:53:50;;;;;;;37.87;22.70;;;8.50;96.20;;;;;;5099510;28;20274;-80
2023/01/03 06:56:18;;;;;;;47.50;24.17;;;8.60;96.10;;;;;;5097598;28;20219;-81
2023/01/03 06:58:46;;;;;;;45.00;26.67;;;8.60;96.10;;;;;;5105209;28;20525;-82
2023/01/03 07:01:15;;;;;;;44.27;24.17;;;8.60;96.30;;;;;;5104512;28;20611;-81
2023/01/03 07:03:45;;;;;;;41.50;23.47;;;8.70;96.50;;;;;;5096757;28;20201;-82
2023/01/03 07:06:13;;;;;;;41.47;23.83;;;8.70;96.20;;;;;;5101714;28;20200;-83
2023/01/03 07:08:42;;;;;;;37.87;23.33;;;8.80;96.30;;;;;;5100026;28;20197;-80
2023/01/03 07:11:15;;;;;;;40.90;23.90;;;8.80;96.30;;;;;;5100091;28;20201;-83
2023/01/03 07:13:58;;;;;;;37.23;21.50;;;8.80;96.30;;;;;;5100849;28;20234;-81
2023/01/03 07:16:28;;;;;;;40.93;22.83;;;8.80;96.20;;;;;;5093994;28;20194;-83
2023/01/03 07:18:58;;;;;;;36.13;22.23;;;8.90;96.30;;;;;;5094209;27;20208;-82
2023/01/03 07:21:28;;;;;;;36.17;20.93;;;8.90;96.20;;;;;;5104123;27;20209;-85
2023/01/03 07:24:00;;;;;;;50.00;23.23;;;9.00;96.10;;;;;;5103818;27;20193;-79
2023/01/03 07:26:31;;;;;;;39.20;22.97;;;9.00;96.10;;;;;;5099475;27;20559;-80
2023/01/03 07:29:00;;;;;;;43.13;23.17;;;9.10;96.00;;;;;;5110535;27;20188;-79
2023/01/03 07:31:31;;;;;;;42.87;22.67;;;9.00;95.90;;;;;;5106912;27;20207;-80
2023/01/03 07:34:01;;;;;;;40.93;22.90;;;9.00;95.90;;;;;;5099817;28;20267;-81
2023/01/03 07:36:30;;;;;;;41.90;23.40;;;9.00;95.90;;;;;;5114378;27;20193;-78
2023/01/03 07:38:58;;;;;;;38.97;22.00;;;9.00;95.90;;;;;;5110638;27;20217;-80
2023/01/03 07:43:35;;;;;;;38.63;21.53;;;9.10;95.90;;;;;;5110904;27;20200;-80
2023/01/03 07:44:14;;;;;;;44.40;24.03;;;9.20;95.90;;;;;;5108510;27;20190;-80
2023/01/03 07:46:42;;;;;;;36.77;23.03;;;9.20;95.90;;;;;;5096324;27;20300;-80
2023/01/03 07:49:12;;;;;;;41.57;23.13;;;9.20;95.80;;;;;;5112375;27;20196;-80
2023/01/03 07:51:41;;;;;;;45.87;24.33;;;9.30;95.80;;;;;;5113892;27;20236;-81
2023/01/03 07:54:09;;;;;;;41.90;22.17;;;9.30;95.80;;;;;;5109858;27;20201;-81
2023/01/03 07:56:38;;;;;;;37.77;21.67;;;9.40;95.90;;;;;;5099766;27;20197;-80
2023/01/03 07:59:06;;;;;;;37.60;23.03;;;9.40;95.90;;;;;;5116484;27;20217;-81
2023/01/03 08:01:36;;;;;;;40.73;23.50;;;9.50;96.00;;;;;;5102373;27;20201;-81
2023/01/03 08:04:05;;;;;;;43.60;23.50;;;9.50;95.90;;;;;;5100074;28;20201;-85
2023/01/03 08:06:35;;;;;;;40.97;22.20;;;9.60;96.00;;;;;;5101053;27;20569;-80
2023/01/03 08:14:49;;;;;;;37.40;22.17;;;9.80;96.10;;;;;;5055934;28;20202;-79
2023/01/03 08:17:17;;;;;;;33.07;20.97;;;9.90;96.20;;;;;;5054147;28;20290;-79
2023/01/03 08:19:46;;;;;;;34.37;22.50;;;9.90;96.30;;;;;;5079181;27;20651;-80
2023/01/03 08:22:15;;;;;;;37.13;21.27;;;10.00;96.40;;;;;;5099677;27;20221;-82
2023/01/03 08:24:44;;;;;;;35.03;19.83;;;10.10;96.60;;;;;;5107198;27;20193;-82
2023/01/03 08:27:12;;;;;;;32.80;21.60;;;10.20;96.60;;;;;;5104354;28;20201;-82
2023/01/03 08:29:40;;;;;;;38.87;22.37;;;10.20;96.80;;;;;;5103009;27;20193;-81
2023/01/03 08:32:09;;;;;;;36.60;21.80;;;10.30;96.90;;;;;;5113814;27;20284;-81
2023/01/03 08:34:40;;;;;;;38.87;21.50;;;10.40;97.00;;;;;;5105080;27;20239;-82
2023/01/03 08:37:12;;;;;;;38.90;19.63;;;10.50;97.00;;;;;;5107353;27;20243;-84
2023/01/03 08:39:46;;;;;;;34.17;19.97;;;10.60;97.00;;;;;;5103022;27;20205;-83
2023/01/03 08:42:16;;;;;;;33.23;19.87;;;10.70;96.90;;;;;;5104489;27;20234;-81
2023/01/03 08:44:45;;;;;;;39.47;20.70;;;10.80;96.90;;;;;;5098932;27;20198;-80
2023/01/03 08:47:14;;;;;;;40.53;21.73;;;10.80;96.90;;;;;;5098433;27;20254;-82
2023/01/03 08:49:43;;;;;;;35.50;19.70;;;10.90;96.90;;;;;;5106987;27;20252;-84
2023/01/03 08:52:11;;;;;;;34.37;19.37;;;11.00;96.80;;;;;;5102081;27;20221;-83
2023/01/03 08:54:46;;;;;;;33.67;19.10;;;11.10;96.80;;;;;;5094324;27;20197;-81
2023/01/03 08:57:15;;;;;;;32.40;18.53;;;11.20;96.60;;;;;;5104255;28;20676;-81
2023/01/03 08:59:43;;;;;;;33.57;18.27;;;11.40;96.50;;;;;;5108774;27;20213;-81
2023/01/03 09:02:11;;;;;;;29.17;16.83;;;11.40;96.30;;;;;;5098747;27;20635;-79
2023/01/03 09:04:40;;;;;;;30.60;17.93;;;11.50;96.20;;;;;;5098078;27;20199;-82
2023/01/03 09:07:08;;;;;;;30.10;17.57;;;11.60;96.10;;;;;;5102076;28;20212;-81
2023/01/03 09:09:36;;;;;;;30.93;17.53;;;11.70;96.00;;;;;;5108684;28;20231;-81
2023/01/03 09:12:06;;;;;;;26.37;16.90;;;11.70;95.80;;;;;;5096740;28;20235;-82
2023/01/03 09:14:35;;;;;;;33.20;17.33;;;11.90;95.80;;;;;;5095016;27;20198;-79
2023/01/03 09:17:42;;;;;;;31.97;17.70;;;12.00;95.60;;;;;;5074940;27;20591;-78
2023/01/03 09:20:12;;;;;;;30.33;17.13;;;12.10;95.60;;;;;;5055391;28;20269;-81
2023/01/03 09:22:41;;;;;;;28.37;16.97;;;12.10;95.30;;;;;;5052094;28;20214;-82
2023/01/03 09:25:09;;;;;;;32.07;18.47;;;12.20;95.30;;;;;;5057974;28;20256;-81
2023/01/03 09:27:38;;;;;;;35.38;20.77;;;12.30;95.10;;;;;;5061242;28;20466;-79
2023/01/03 09:30:07;;;;;;;35.43;20.03;;;12.40;95.00;;;;;;5058811;28;20209;-80
2023/01/03 09:32:35;;;;;;;32.10;18.33;;;12.40;94.70;;;;;;5071062;28;20195;-79
2023/01/03 09:35:06;;;;;;;31.40;18.23;;;12.40;94.80;;;;;;5063463;28;20186;-81
2023/01/03 09:37:34;;;;;;;35.17;17.80;;;12.50;94.70;;;;;;5060504;28;20276;-81
2023/01/03 09:40:06;;;;;;;31.17;18.33;;;12.60;94.70;;;;;;5052311;28;20290;-80
2023/01/03 09:45:28;;;;;;;30.47;18.17;;;12.70;94.40;;;;;;5059212;28;20199;-80
2023/01/03 09:47:57;;;;;;;29.87;18.37;;;12.80;94.30;;;;;;5061972;28;20230;-80
2023/01/03 09:50:29;;;;;;;30.87;17.63;;;12.80;94.30;;;;;;5066035;28;20191;-80
2023/01/03 10:05:11;;;;;;;33.13;19.57;;;13.20;93.70;;;;;;5056490;28;20194;-81
2023/01/03 10:08:00;;;;;;;36.53;19.80;;;13.20;93.80;;;;;;5060158;28;20194;-81
2023/01/03 10:10:37;;;;;;;35.53;19.03;;;13.30;93.60;;;;;;5058161;28;20202;-82
2023/01/03 10:13:17;;;;;;;38.17;20.57;;;13.40;93.50;;;;;;5060108;28;20209;-81
2023/01/03 10:15:56;;;;;;;35.37;19.37;;;13.40;93.40;;;;;;5062053;28;20218;-80
2023/01/03 10:18:39;;;;;;;34.37;20.00;;;13.50;93.30;;;;;;5058024;28;20191;-80
2023/01/03 10:21:13;;;;;;;37.73;20.97;;;13.50;93.10;;;;;;5060024;28;20226;-81
2023/01/03 10:23:43;;;;;;;38.03;20.87;;;13.60;93.00;;;;;;5058599;28;20191;-80
2023/01/03 10:26:12;;;;;;;34.77;20.30;;;13.60;93.10;;;;;;5064331;28;20218;-81
2023/01/03 10:28:44;;;;;;;35.73;19.83;;;13.70;93.00;;;;;;5040078;28;20215;-82
2023/01/03 10:31:28;;;;;;;36.60;20.63;;;13.80;93.10;;;;;;5048088;28;20191;-81
2023/01/03 10:33:57;;;;;;;34.40;20.43;;;13.80;93.10;;;;;;5043954;28;20195;-80
2023/01/03 10:36:26;;;;;;;35.90;20.90;;;13.90;92.80;;;;;;5039676;28;20233;-81
2023/01/03 10:39:06;;;;;;;37.30;21.67;;;13.90;93.00;;;;;;5045146;28;20237;-82
2023/01/03 10:41:42;;;;;;;44.37;23.10;;;14.00;92.90;;;;;;5042632;28;20191;-82
2023/01/03 10:44:24;;;;;;;38.77;23.03;;;14.10;92.80;;;;;;5040105;28;20202;-82
2023/01/03 10:46:54;;;;;;;36.20;21.67;;;14.20;92.60;;;;;;5047236;28;20270;-84
2023/01/03 10:49:24;;;;;;;43.40;22.37;;;14.30;92.50;;;;;;5048513;28;20203;-81
2023/01/03 10:52:00;;;;;;;37.23;21.03;;;14.30;92.40;;;;;;5050552;28;20556;-82
2023/01/03 10:54:46;;;;;;;39.97;23.33;;;14.30;92.30;;;;;;5043505;28;20191;-84
2023/01/03 10:57:38;;;;;;;42.13;22.33;;;14.40;92.20;;;;;;5043034;28;20277;-86
2023/01/03 11:00:32;;;;;;;46.33;23.50;;;14.40;92.20;;;;;;5043226;28;20338;-82
2023/01/03 11:03:14;;;;;;;42.60;22.60;;;14.50;92.50;;;;;;5030015;28;20192;-81
2023/01/03 11:05:45;;;;;;;45.20;24.40;;;14.60;92.20;;;;;;5044681;28;20624;-81
2023/01/03 11:08:18;;;;;;;39.03;23.40;;;14.60;92.00;;;;;;5046008;28;20313;-82
2023/01/03 11:10:56;;;;;;;38.67;22.83;;;14.70;92.00;;;;;;5042661;28;20199;-81
2023/01/03 11:13:32;;;;;;;44.70;25.73;;;14.70;91.80;;;;;;5052523;28;20206;-80
2023/01/03 11:16:02;;;;;;;44.07;24.77;;;14.80;91.60;;;;;;5043773;28;20215;-79
2023/01/03 11:18:31;;;;;;;43.90;24.33;;;14.80;91.60;;;;;;5046357;28;20195;-80
2023/01/03 11:21:08;;;;;;;42.30;24.33;;;14.80;91.60;;;;;;5047423;28;20191;-81
2023/01/03 11:23:57;;;;;;;42.90;23.40;;;14.90;91.50;;;;;;5045066;28;20195;-82
2023/01/03 11:26:44;;;;;;;42.70;23.43;;;14.90;91.50;;;;;;5042946;28;20195;-81
2023/01/03 11:29:39;;;;;;;40.30;23.80;;;15.00;91.40;;;;;;5042894;28;20693;-82
2023/01/03 11:32:23;;;;;;;43.77;23.87;;;15.00;91.00;;;;;;5037321;28;20192;-86
2023/01/03 11:35:32;;;;;;;39.27;23.73;;;15.00;91.10;;;;;;5039436;28;20191;-81
2023/01/03 11:38:15;;;;;;;41.95;25.63;;;15.10;91.00;;;;;;5043799;28;20452;-80
2023/01/03 11:40:52;;;;;;;41.20;23.63;;;15.10;90.70;;;;;;5044940;28;20195;-79
2023/01/03 11:43:44;;;;;;;41.03;24.60;;;15.10;90.70;;;;;;5042430;28;20565;-81
2023/01/03 11:46:35;;;;;;;41.40;23.83;;;15.20;90.70;;;;;;5038483;28;20190;-82
2023/01/03 11:49:18;;;;;;;40.50;23.00;;;15.20;90.60;;;;;;5044456;28;20217;-81
2023/01/03 11:51:59;;;;;;;43.20;24.77;;;15.30;90.70;;;;;;5045183;28;20201;-81
2023/01/03 11:55:02;;;;;;;36.67;24.13;;;15.30;90.70;;;;;;5039183;28;20553;-82
2023/01/03 11:57:40;;;;;;;37.87;23.10;;;15.40;90.40;;;;;;5034529;28;20219;-81
2023/01/03 12:00:20;;;;;;;37.77;23.10;;;15.50;90.50;;;;;;5044843;28;20199;-81
2023/01/03 12:03:05;;;;;;;39.83;22.17;;;15.50;90.20;;;;;;5042954;28;20617;-84
2023/01/03 12:05:43;;;;;;;38.23;23.37;;;15.50;89.50;;;;;;5038311;28;20207;-82
2023/01/03 12:08:41;;;;;;;41.60;23.87;;;15.50;89.70;;;;;;5033499;28;20280;-80
2023/01/03 12:11:21;;;;;;;41.23;23.30;;;15.50;89.40;;;;;;5041992;28;20195;-79
2023/01/03 12:13:58;;;;;;;39.60;22.60;;;15.60;89.50;;;;;;5043037;28;20191;-79
2023/01/03 12:16:33;;;;;;;41.00;23.13;;;15.60;89.60;;;;;;5041061;28;20636;-82
2023/01/03 12:19:07;;;;;;;37.83;21.90;;;15.60;89.60;;;;;;5047434;28;20197;-81
2023/01/03 12:21:45;;;;;;;41.63;23.60;;;15.60;88.90;;;;;;5045867;28;20631;-80
2023/01/03 12:24:19;;;;;;;40.40;22.87;;;15.70;88.80;;;;;;5042136;28;20717;-82
2023/01/03 12:26:53;;;;;;;34.83;20.90;;;15.70;88.70;;;;;;5047323;28;20294;-81
2023/01/03 12:29:24;;;;;;;43.70;22.97;;;15.70;88.20;;;;;;5042674;28;20195;-83
2023/01/03 12:32:00;;;;;;;40.03;21.10;;;15.70;88.20;;;;;;5046612;28;20609;-82
2023/01/03 12:34:37;;;;;;;36.97;21.97;;;15.80;88.30;;;;;;5039488;28;20201;-83
2023/01/03 12:37:13;;;;;;;34.77;22.17;;;15.90;88.50;;;;;;5049608;28;20214;-81
2023/01/03 12:39:53;;;;;;;34.63;21.40;;;15.90;88.20;;;;;;5047806;28;20207;-80
2023/01/03 12:42:32;;;;;;;38.10;22.07;;;15.90;87.50;;;;;;5045552;28;20190;-80
2023/01/03 12:45:14;;;;;;;38.20;21.27;;;16.00;87.80;;;;;;5040925;28;20659;-82
2023/01/03 12:47:49;;;;;;;39.10;21.03;;;16.00;88.00;;;;;;5038042;28;20195;-83
2023/01/03 12:50:22;;;;;;;34.40;20.40;;;16.10;88.30;;;;;;5044937;28;20206;-83
2023/01/03 12:52:58;;;;;;;38.23;21.03;;;16.20;88.60;;;;;;5040425;28;20199;-81
2023/01/03 12:55:48;;;;;;;38.00;21.37;;;16.30;88.10;;;;;;5042722;28;20666;-83
2023/01/03 12:58:29;;;;;;;35.13;20.50;;;16.30;87.70;;;;;;5040651;28;20203;-83
2023/01/03 13:01:12;;;;;;;37.40;20.83;;;16.40;87.70;;;;;;5044173;28;20286;-81
2023/01/03 13:03:51;;;;;;;31.17;18.93;;;16.40;87.80;;;;;;5045868;28;20200;-83
2023/01/03 13:06:23;;;;;;;32.33;18.70;;;16.50;88.20;;;;;;5041125;28;20198;-84
2023/01/03 13:08:56;;;;;;;29.17;17.97;;;16.60;88.80;;;;;;5042556;28;20210;-84
2023/01/03 13:11:29;;;;;;;30.13;17.70;;;16.80;89.90;;;;;;5037717;28;20637;-83
2023/01/03 13:14:02;;;;;;;28.95;17.55;;;17.10;90.10;;;;;;5042939;28;20586;-83
2023/01/03 13:16:40;;;;;;;30.20;17.83;;;17.50;90.40;;;;;;5046609;28;20235;-84
2023/01/03 13:19:50;;;;;;;33.55;19.80;;;17.70;90.20;;;;;;5042469;28;20215;-83
2023/01/03 13:22:50;;;;;;;35.78;19.88;;;18.00;89.60;;;;;;5042132;28;20245;-83
2023/01/03 13:25:46;;;;;;;32.08;19.70;;;18.30;89.30;;;;;;5039542;28;20222;-82
2023/01/03 13:28:32;;;;;;;32.45;19.20;;;18.50;86.50;;;;;;4998401;28;20268;-84
2023/01/03 13:31:35;;;;;;;35.22;20.55;;;18.70;85.60;;;;;;5044195;28;20205;-83
2023/01/03 13:34:33;;;;;;;31.40;19.50;;;18.90;83.90;;;;;;5024988;28;20193;-85
2023/01/03 13:37:22;;;;;;;32.72;19.70;;;19.30;82.80;;;;;;5037036;28;20564;-83
2023/01/03 13:40:15;;;;;;;34.33;20.67;;;19.70;81.30;;;;;;5042692;28;20202;-83
2023/01/03 13:42:52;;;;;;;34.65;20.90;;;19.70;80.20;;;;;;5039929;28;20191;-83
2023/01/03 13:45:56;;;;;;;34.15;20.67;;;19.90;79.70;;;;;;5040357;28;20222;-84
2023/01/03 13:48:34;;;;;;;32.38;19.27;;;20.60;78.10;;;;;;5037160;28;20997;-84
2023/01/03 13:51:28;;;;;;;29.05;18.80;;;20.90;76.90;;;;;;5036510;28;20295;-83
2023/01/03 13:54:01;;;;;;;30.70;19.48;;;21.10;75.00;;;;;;5043426;28;20195;-84
2023/01/03 13:56:33;;;;;;;33.70;19.98;;;21.60;73.40;;;;;;5042633;28;20669;-83
2023/01/03 13:59:09;;;;;;;35.93;21.60;;;21.40;73.00;;;;;;5042884;28;20434;-83
2023/01/03 14:02:04;;;;;;;35.17;21.15;;;20.90;72.90;;;;;;5041702;28;20191;-83
2023/01/03 14:05:05;;;;;;;32.58;19.52;;;20.50;73.40;;;;;;5038765;28;20191;-84